Weather at Manchester-Boston Regional Airport

Public forecast

Using degrees Fahrenheit for public forecast. Weather courtesy of forecast.io.

Current aviation weather report (METAR) for Manchester-Boston Regional Airport

Retrieved 2021/01/23 09:38 UTC (22 minutes ago):

KMHT 230938Z 36007KT 1 1/2SM R35/5500VP6000FT -SN BKN008 OVC015 M03/M05 A2979 RMK AO2 TWR VIS 2 P0000 T10281050

Aviation forecast (TAF) for Manchester-Boston Regional Airport

Retrieved 2021/01/23 06:24 UTC (4 hours ago):

TAF KMHT 230521Z 2306/2406 31006KT P6SM SCT040 FM231400 31011G21KT P6SM SCT250 FM231900 31013G25KT P6SM SKC